createdAt,value
2023-05-08T00:00:39.637Z,23.02
2023-05-08T00:01:39.625Z,23.05
2023-05-08T00:02:39.687Z,23.07
2023-05-08T00:03:39.828Z,23.09
2023-05-08T00:04:39.708Z,23.09
2023-05-08T00:05:39.671Z,23.10
2023-05-08T00:06:39.688Z,23.10
2023-05-08T00:07:39.705Z,23.10
2023-05-08T00:08:39.717Z,23.10
2023-05-08T00:09:39.743Z,23.11
2023-05-08T00:10:39.829Z,23.10
2023-05-08T00:11:39.794Z,23.11
2023-05-08T00:12:39.874Z,23.11
2023-05-08T00:13:39.874Z,23.11
2023-05-08T00:14:39.866Z,23.11
2023-05-08T00:15:39.917Z,23.11
2023-05-08T00:16:39.982Z,23.11
2023-05-08T00:17:39.993Z,23.11
2023-05-08T00:18:39.986Z,23.11
2023-05-08T00:19:40.009Z,23.11
2023-05-08T00:20:40.037Z,23.11
2023-05-08T00:21:40.078Z,23.11
2023-05-08T00:22:40.121Z,23.11
2023-05-08T00:23:40.150Z,23.10
2023-05-08T00:24:40.188Z,23.10
2023-05-08T00:25:40.229Z,23.10
2023-05-08T00:26:41.073Z,23.10
2023-05-08T00:27:40.292Z,23.10
2023-05-08T00:28:40.333Z,23.10
2023-05-08T00:29:40.388Z,23.10
2023-05-08T00:30:40.384Z,23.09
2023-05-08T00:31:40.428Z,23.08
2023-05-08T00:32:40.472Z,23.09
2023-05-08T00:33:40.480Z,23.09
2023-05-08T00:34:40.525Z,23.09
2023-05-08T00:35:40.551Z,23.09
2023-05-08T00:36:40.585Z,23.09
2023-05-08T00:37:40.688Z,23.09
2023-05-08T00:38:40.651Z,23.09
2023-05-08T00:39:40.690Z,23.08
2023-05-08T00:40:40.719Z,23.08
2023-05-08T00:41:40.750Z,23.08
2023-05-08T00:42:40.815Z,23.08
2023-05-08T00:43:40.828Z,23.08
2023-05-08T00:44:40.866Z,23.08
2023-05-08T00:45:40.927Z,23.08
2023-05-08T00:46:41.013Z,23.08
2023-05-08T00:47:41.086Z,23.08
2023-05-08T00:48:40.995Z,23.08
2023-05-08T00:49:41.038Z,23.07
2023-05-08T00:50:41.075Z,23.08
2023-05-08T00:51:41.118Z,23.07
2023-05-08T00:52:41.157Z,23.07
2023-05-08T00:53:41.199Z,23.08
2023-05-08T00:54:41.264Z,23.08
2023-05-08T00:55:41.268Z,23.08
2023-05-08T00:56:41.304Z,23.07
2023-05-08T00:57:41.344Z,23.06
2023-05-08T00:58:41.378Z,23.07
2023-05-08T00:59:41.415Z,23.07
2023-05-08T01:00:41.441Z,23.07
2023-05-08T01:01:41.573Z,23.06
2023-05-08T01:02:41.568Z,23.07
2023-05-08T01:03:41.713Z,23.06
2023-05-08T01:04:41.591Z,23.05
2023-05-08T01:05:41.623Z,23.06
2023-05-08T01:06:41.668Z,23.06
2023-05-08T01:07:41.702Z,23.07
2023-05-08T01:08:41.741Z,23.06
2023-05-08T01:09:41.786Z,23.06
2023-05-08T01:10:41.825Z,23.05
2023-05-08T01:11:41.859Z,23.05
2023-05-08T01:12:41.932Z,23.05
2023-05-08T01:13:41.931Z,23.05
2023-05-08T01:14:41.987Z,23.06
2023-05-08T01:15:42.100Z,23.05
2023-05-08T01:16:42.069Z,23.05
2023-05-08T01:17:42.168Z,23.05
2023-05-08T01:18:42.125Z,23.04
2023-05-08T01:19:42.176Z,23.04
2023-05-08T01:20:42.232Z,23.05
2023-05-08T01:21:42.262Z,23.04
2023-05-08T01:22:42.306Z,23.05
2023-05-08T01:23:42.337Z,23.04
2023-05-08T01:24:42.380Z,23.03
2023-05-08T01:25:42.437Z,23.04
2023-05-08T01:26:42.467Z,23.04
2023-05-08T01:27:42.502Z,23.04
2023-05-08T01:28:42.516Z,23.04
2023-05-08T01:29:42.565Z,23.03
2023-05-08T01:30:42.602Z,23.04
2023-05-08T01:31:42.653Z,23.04
2023-05-08T01:32:42.727Z,23.04
2023-05-08T01:33:42.961Z,23.04
2023-05-08T01:34:42.772Z,23.04
2023-05-08T01:35:42.823Z,23.04
2023-05-08T01:36:42.879Z,23.03
2023-05-08T01:37:42.909Z,23.03
2023-05-08T01:38:42.968Z,23.03
2023-05-08T01:39:43.020Z,23.04
2023-05-08T01:40:43.048Z,23.03
2023-05-08T01:41:43.088Z,23.03
2023-05-08T01:42:43.133Z,23.03
2023-05-08T01:43:43.175Z,23.03
2023-05-08T01:44:43.219Z,23.03
2023-05-08T01:45:43.272Z,23.03
2023-05-08T01:46:43.327Z,23.03
2023-05-08T01:47:43.381Z,23.03
2023-05-08T01:48:43.403Z,23.02
2023-05-08T01:49:43.473Z,23.02
2023-05-08T01:50:43.481Z,23.03
2023-05-08T01:51:43.516Z,23.02
2023-05-08T01:52:43.561Z,23.02
2023-05-08T01:53:43.600Z,23.03
2023-05-08T01:54:43.639Z,23.02
2023-05-08T01:55:43.672Z,23.02
2023-05-08T01:56:43.717Z,23.02
2023-05-08T01:57:43.762Z,23.03
2023-05-08T01:58:43.794Z,23.02
2023-05-08T01:59:43.813Z,23.03
2023-05-08T02:00:42.861Z,23.02
2023-05-08T02:01:43.920Z,23.01
2023-05-08T02:02:44.006Z,23.01
2023-05-08T02:03:43.963Z,23.01
2023-05-08T02:04:44.008Z,23.01
2023-05-08T02:05:44.071Z,23.01
2023-05-08T02:06:44.102Z,23.01
2023-05-08T02:07:44.141Z,23.02
2023-05-08T02:08:44.175Z,23.01
2023-05-08T02:09:44.231Z,23.01
2023-05-08T02:10:44.259Z,23.01
2023-05-08T02:11:44.305Z,23.02
2023-05-08T02:12:44.393Z,23.01
2023-05-08T02:13:44.391Z,23.00
2023-05-08T02:14:44.430Z,23.01
2023-05-08T02:15:44.474Z,23.01
2023-05-08T02:16:44.678Z,23.01
2023-05-08T02:17:44.599Z,23.01
2023-05-08T02:18:44.601Z,23.01
2023-05-08T02:19:44.650Z,23.01
2023-05-08T02:20:44.687Z,23.01
2023-05-08T02:21:44.772Z,23.00
2023-05-08T02:22:44.779Z,23.00
2023-05-08T02:23:44.824Z,23.00
2023-05-08T02:24:44.869Z,22.99
2023-05-08T02:25:44.922Z,23.00
2023-05-08T02:26:44.962Z,22.99
2023-05-08T02:27:45.013Z,23.00
2023-05-08T02:28:45.049Z,22.99
2023-05-08T02:29:45.098Z,22.99
2023-05-08T02:30:45.139Z,22.99
2023-05-08T02:31:45.228Z,22.99
2023-05-08T02:32:45.272Z,22.99
2023-05-08T02:33:45.265Z,22.99
2023-05-08T02:34:51.408Z,22.99
2023-05-08T02:35:45.338Z,22.98
2023-05-08T02:36:45.335Z,22.98
2023-05-08T02:37:45.314Z,22.98
2023-05-08T02:38:45.277Z,22.99
2023-05-08T02:39:45.255Z,22.98
2023-05-08T02:40:45.240Z,22.99
2023-05-08T02:41:45.219Z,22.98
2023-05-08T02:42:45.210Z,22.99
2023-05-08T02:43:45.178Z,22.98
2023-05-08T02:44:45.171Z,22.98
2023-05-08T02:45:45.196Z,22.98
2023-05-08T02:46:45.124Z,22.98
2023-05-08T02:47:45.124Z,22.98
2023-05-08T02:48:45.098Z,22.98
2023-05-08T02:49:45.058Z,22.98
2023-05-08T02:50:45.048Z,22.98
2023-05-08T02:51:45.045Z,22.98
2023-05-08T02:52:44.994Z,22.97
2023-05-08T02:53:45.007Z,22.97
2023-05-08T02:54:44.972Z,22.98
2023-05-08T02:55:44.946Z,22.97
2023-05-08T02:56:44.925Z,22.97
2023-05-08T02:57:44.916Z,22.97
2023-05-08T02:58:44.904Z,22.96
2023-05-08T02:59:44.878Z,22.97
2023-05-08T03:00:44.878Z,22.97
2023-05-08T03:01:44.926Z,22.96
2023-05-08T03:02:45.038Z,22.97
2023-05-08T03:03:45.179Z,22.97
2023-05-08T03:04:45.062Z,22.97
2023-05-08T03:05:45.104Z,22.97
2023-05-08T03:06:45.187Z,22.97
2023-05-08T03:07:45.217Z,22.97
2023-05-08T03:08:45.252Z,22.96
2023-05-08T03:09:45.336Z,22.97
2023-05-08T03:10:45.355Z,22.96
2023-05-08T03:11:45.389Z,22.96
2023-05-08T03:12:45.457Z,22.96
2023-05-08T03:13:45.505Z,22.96
2023-05-08T03:14:46.364Z,22.96
2023-05-08T03:15:45.698Z,22.96
2023-05-08T03:16:45.649Z,22.96
2023-05-08T03:17:45.711Z,22.96
2023-05-08T03:18:45.743Z,22.96
2023-05-08T03:19:45.781Z,22.95
2023-05-08T03:20:45.837Z,22.96
2023-05-08T03:21:45.878Z,22.95
2023-05-08T03:22:45.950Z,22.95
2023-05-08T03:23:45.986Z,22.95
2023-05-08T03:24:46.026Z,22.95
2023-05-08T03:25:46.104Z,22.94
2023-05-08T03:26:46.168Z,22.95
2023-05-08T03:27:46.187Z,22.94
2023-05-08T03:28:46.283Z,22.95
2023-05-08T03:29:46.275Z,22.95
2023-05-08T03:30:46.320Z,22.95
2023-05-08T03:31:46.372Z,22.94
2023-05-08T03:32:46.437Z,22.95
2023-05-08T03:33:46.457Z,22.95
2023-05-08T03:34:46.494Z,22.94
2023-05-08T03:35:46.553Z,22.94
2023-05-08T03:36:46.593Z,22.94
2023-05-08T03:37:46.641Z,22.95
2023-05-08T03:38:46.733Z,22.94
2023-05-08T03:39:46.730Z,22.94
2023-05-08T03:40:46.784Z,22.95
2023-05-08T03:41:46.854Z,22.93
2023-05-08T03:42:46.898Z,22.94
2023-05-08T03:43:46.923Z,22.93
2023-05-08T03:44:46.966Z,22.93
2023-05-08T03:45:47.014Z,22.93
2023-05-08T03:46:47.191Z,22.94
2023-05-08T03:47:47.128Z,22.93
2023-05-08T03:48:47.199Z,22.93
2023-05-08T03:49:47.199Z,22.93
2023-05-08T03:50:47.254Z,22.93
2023-05-08T03:51:47.334Z,22.93
2023-05-08T03:52:47.352Z,22.92
2023-05-08T03:53:47.403Z,22.93
2023-05-08T03:54:47.462Z,22.94
2023-05-08T03:55:47.485Z,22.93
2023-05-08T03:56:47.535Z,22.93
2023-05-08T03:57:47.618Z,22.92
2023-05-08T03:58:47.641Z,22.92
2023-05-08T03:59:47.692Z,22.93
2023-05-08T04:00:47.733Z,22.92
2023-05-08T04:01:47.831Z,22.93
2023-05-08T04:02:47.893Z,22.92
2023-05-08T04:03:47.999Z,22.92
2023-05-08T04:04:47.952Z,22.93
2023-05-08T04:05:47.960Z,22.92
2023-05-08T04:06:50.486Z,22.93
2023-05-08T04:07:47.993Z,22.92
2023-05-08T04:08:47.970Z,22.92
2023-05-08T04:09:47.949Z,22.92
2023-05-08T04:10:47.936Z,22.92
2023-05-08T04:11:47.928Z,22.93
2023-05-08T04:12:47.915Z,22.92
2023-05-08T04:13:47.928Z,22.92
2023-05-08T04:14:47.914Z,22.92
2023-05-08T04:15:47.853Z,22.92
2023-05-08T04:16:47.846Z,22.92
2023-05-08T04:17:47.866Z,22.92
2023-05-08T04:18:47.815Z,22.92
2023-05-08T04:19:47.819Z,22.92
2023-05-08T04:20:47.792Z,22.92
2023-05-08T04:21:47.827Z,22.92
2023-05-08T04:22:47.740Z,22.92
2023-05-08T04:23:47.708Z,22.92
2023-05-08T04:24:47.754Z,22.92
2023-05-08T04:25:47.698Z,22.92
2023-05-08T04:26:47.679Z,22.92
2023-05-08T04:27:47.687Z,22.92
2023-05-08T04:28:47.658Z,22.92
2023-05-08T04:29:47.724Z,22.92
2023-05-08T04:30:47.634Z,22.92
2023-05-08T04:31:47.737Z,22.91
2023-05-08T04:32:47.720Z,22.92
2023-05-08T04:33:47.724Z,22.92
2023-05-08T04:34:47.804Z,22.92
2023-05-08T04:35:47.825Z,22.92
2023-05-08T04:36:47.886Z,22.91
2023-05-08T04:37:47.927Z,22.92
2023-05-08T04:38:47.950Z,22.91
2023-05-08T04:39:48.029Z,22.91
2023-05-08T04:40:48.056Z,22.92
2023-05-08T04:41:48.179Z,22.92
2023-05-08T04:42:48.141Z,22.92
2023-05-08T04:43:48.176Z,22.91
2023-05-08T04:44:48.270Z,22.92
2023-05-08T04:45:48.340Z,22.92
2023-05-08T04:46:48.338Z,22.92
2023-05-08T04:47:48.412Z,22.91
2023-05-08T04:48:48.430Z,22.91
2023-05-08T04:49:48.508Z,22.91
2023-05-08T04:50:48.522Z,22.91
2023-05-08T04:51:48.573Z,22.91
2023-05-08T04:52:48.614Z,22.92
2023-05-08T04:53:48.642Z,22.91
2023-05-08T04:54:48.684Z,22.92
2023-05-08T04:55:48.736Z,22.91
2023-05-08T04:56:48.786Z,22.92
2023-05-08T04:57:48.841Z,22.92
2023-05-08T04:58:48.883Z,22.91
2023-05-08T04:59:48.953Z,22.92
2023-05-08T05:00:48.962Z,22.92
2023-05-08T05:01:49.079Z,22.92
2023-05-08T05:02:49.148Z,22.92
2023-05-08T05:03:49.129Z,22.92
2023-05-08T05:04:49.173Z,22.91
2023-05-08T05:05:49.216Z,22.92
2023-05-08T05:06:49.242Z,22.91
2023-05-08T05:07:49.316Z,22.92
2023-05-08T05:08:49.335Z,22.92
2023-05-08T05:09:49.805Z,22.92
2023-05-08T05:10:49.460Z,22.92
2023-05-08T05:11:49.487Z,22.92
2023-05-08T05:12:49.567Z,22.92
2023-05-08T05:13:49.588Z,22.92
2023-05-08T05:14:49.806Z,22.92
2023-05-08T05:15:49.725Z,22.92
2023-05-08T05:16:49.721Z,22.91
2023-05-08T05:17:49.904Z,22.91
2023-05-08T05:18:49.824Z,22.91
2023-05-08T05:19:51.623Z,22.91
2023-05-08T05:20:49.865Z,22.91
2023-05-08T05:21:49.846Z,22.92
2023-05-08T05:22:49.818Z,22.92
2023-05-08T05:23:49.808Z,22.93
2023-05-08T05:24:50.291Z,22.93
2023-05-08T05:25:49.801Z,22.93
2023-05-08T05:26:49.770Z,22.94
2023-05-08T05:27:49.756Z,22.95
2023-05-08T05:28:49.782Z,22.95
2023-05-08T05:29:49.736Z,22.95
2023-05-08T05:30:49.721Z,22.96
2023-05-08T05:31:49.809Z,22.96
2023-05-08T05:32:49.823Z,22.96
2023-05-08T05:33:49.724Z,22.97
2023-05-08T05:34:49.688Z,22.96
2023-05-08T05:35:49.711Z,22.97
2023-05-08T05:36:49.654Z,22.97
2023-05-08T05:37:49.687Z,22.97
2023-05-08T05:38:49.819Z,22.98
2023-05-08T05:39:49.819Z,22.99
2023-05-08T05:40:49.788Z,22.99
2023-05-08T05:41:49.792Z,22.99
2023-05-08T05:42:50.473Z,22.99
2023-05-08T05:43:49.897Z,23.00
2023-05-08T05:44:50.316Z,23.00
2023-05-08T05:45:49.975Z,23.01
2023-05-08T05:46:50.072Z,23.01
2023-05-08T05:47:50.713Z,23.02
2023-05-08T05:48:50.122Z,23.03
2023-05-08T05:49:50.574Z,23.04
2023-05-08T05:50:53.386Z,23.04
2023-05-08T05:51:53.385Z,23.05
2023-05-08T05:52:50.145Z,23.05
2023-05-08T05:53:50.154Z,23.05
2023-05-08T05:54:49.366Z,23.07
2023-05-08T05:55:50.105Z,23.07
2023-05-08T05:56:53.286Z,23.09
2023-05-08T05:57:50.301Z,23.09
2023-05-08T05:58:50.054Z,23.09
2023-05-08T05:59:50.033Z,23.10
2023-05-08T06:00:50.035Z,23.10
2023-05-08T06:02:06.044Z,23.10
2023-05-08T06:02:57.936Z,23.10
2023-05-08T06:03:50.193Z,23.11
2023-05-08T06:04:49.979Z,23.10
2023-05-08T06:05:50.974Z,23.11
2023-05-08T06:06:49.938Z,23.11
2023-05-08T06:07:49.919Z,23.12
2023-05-08T06:08:49.936Z,23.11
2023-05-08T06:09:49.921Z,23.11
2023-05-08T06:10:49.869Z,23.11
2023-05-08T06:11:49.836Z,23.10
2023-05-08T06:12:49.864Z,23.09
2023-05-08T06:13:50.749Z,23.10
2023-05-08T06:14:49.826Z,23.09
2023-05-08T06:15:49.849Z,23.09
2023-05-08T06:16:49.931Z,23.09
2023-05-08T06:17:49.948Z,23.08
2023-05-08T06:18:49.985Z,23.08
2023-05-08T06:19:50.382Z,23.08
2023-05-08T06:20:50.058Z,23.08
2023-05-08T06:21:50.162Z,23.07
2023-05-08T06:22:50.117Z,23.07
2023-05-08T06:23:50.159Z,23.06
2023-05-08T06:24:50.306Z,23.07
2023-05-08T06:25:50.242Z,23.06
2023-05-08T06:26:50.296Z,23.06
2023-05-08T06:27:50.355Z,23.06
2023-05-08T06:28:50.395Z,23.05
2023-05-08T06:29:50.836Z,23.05
2023-05-08T06:30:50.503Z,23.05
2023-05-08T06:31:50.504Z,23.05
2023-05-08T06:32:50.566Z,23.05
2023-05-08T06:33:50.591Z,23.05
2023-05-08T06:34:50.833Z,23.06
2023-05-08T06:35:50.760Z,23.05
2023-05-08T06:36:50.826Z,23.05
2023-05-08T06:37:50.801Z,23.05
2023-05-08T06:38:50.811Z,23.05
2023-05-08T06:40:03.998Z,23.04
2023-05-08T06:40:50.847Z,23.04
2023-05-08T06:41:50.825Z,23.04
2023-05-08T06:42:50.821Z,23.04
2023-05-08T06:43:50.811Z,23.05
2023-05-08T06:44:50.841Z,23.04
2023-05-08T06:45:51.899Z,23.04
2023-05-08T06:46:50.861Z,23.04
2023-05-08T06:47:50.861Z,23.04
2023-05-08T06:48:51.161Z,23.03
2023-05-08T06:49:50.724Z,23.04
2023-05-08T06:50:50.754Z,23.04
2023-05-08T06:51:50.740Z,23.05
2023-05-08T06:52:50.823Z,23.04
2023-05-08T06:53:51.370Z,23.04
2023-05-08T06:54:50.948Z,23.04
2023-05-08T06:55:50.966Z,23.04
2023-05-08T06:56:51.033Z,23.04
2023-05-08T06:57:51.381Z,23.04
2023-05-08T06:59:00.996Z,23.04
2023-05-08T06:59:51.084Z,23.03
2023-05-08T07:00:51.041Z,23.04
2023-05-08T07:01:51.094Z,23.03
2023-05-08T07:02:51.375Z,23.03
2023-05-08T07:03:50.972Z,23.04
2023-05-08T07:04:51.014Z,23.03
2023-05-08T07:05:50.960Z,23.04
2023-05-08T07:06:50.942Z,23.03
2023-05-08T07:07:52.444Z,23.04
2023-05-08T07:08:51.044Z,23.04
2023-05-08T07:09:51.271Z,23.03
2023-05-08T07:10:51.123Z,23.03
2023-05-08T07:11:51.171Z,23.03
2023-05-08T07:12:51.281Z,23.03
2023-05-08T07:13:51.332Z,23.03
2023-05-08T07:14:51.325Z,23.03
2023-05-08T07:15:51.437Z,23.03
2023-05-08T07:16:52.431Z,23.03
2023-05-08T07:17:51.553Z,23.04
2023-05-08T07:18:51.833Z,23.04
2023-05-08T07:19:51.571Z,23.03
2023-05-08T07:20:51.653Z,23.03
2023-05-08T07:21:51.754Z,23.03
2023-05-08T07:22:51.721Z,23.03
2023-05-08T07:23:51.817Z,23.03
2023-05-08T07:24:51.825Z,23.03
2023-05-08T07:25:52.041Z,23.03
2023-05-08T07:26:52.880Z,23.03
2023-05-08T07:27:52.918Z,23.03
2023-05-08T07:28:52.337Z,23.03
2023-05-08T07:29:55.206Z,23.04
2023-05-08T07:30:52.009Z,23.03
2023-05-08T07:31:59.461Z,23.03
2023-05-08T07:32:52.097Z,23.02
2023-05-08T07:33:59.731Z,23.02
2023-05-08T07:34:52.945Z,23.01
2023-05-08T07:36:07.530Z,23.01
2023-05-08T07:36:55.122Z,23.01
2023-05-08T07:37:52.905Z,23.02
2023-05-08T07:38:59.770Z,23.06
2023-05-08T07:39:51.900Z,23.08
2023-05-08T07:40:51.880Z,23.12
2023-05-08T07:41:52.106Z,23.15
2023-05-08T07:42:51.893Z,23.19
2023-05-08T07:43:51.886Z,23.21
2023-05-08T07:44:54.785Z,23.23
2023-05-08T07:45:52.892Z,23.26
2023-05-08T07:46:51.885Z,23.28
2023-05-08T07:47:52.015Z,23.31
2023-05-08T07:48:51.933Z,23.33
2023-05-08T07:49:51.741Z,23.37
2023-05-08T07:50:51.703Z,23.40
2023-05-08T07:51:59.100Z,23.44
2023-05-08T07:52:51.844Z,23.45
2023-05-08T07:53:51.842Z,23.48
2023-05-08T07:54:54.848Z,23.50
2023-05-08T07:56:51.556Z,23.53
2023-05-08T07:57:51.571Z,23.55
2023-05-08T07:58:51.862Z,23.57
2023-05-08T07:59:51.522Z,23.59
2023-05-08T08:00:51.495Z,23.62
2023-05-08T08:01:51.871Z,23.63
2023-05-08T08:02:51.742Z,23.65
2023-05-08T08:03:51.514Z,23.66
2023-05-08T08:04:51.422Z,23.67
2023-05-08T08:05:51.872Z,23.68
2023-05-08T08:06:51.661Z,23.70
2023-05-08T08:07:52.860Z,23.71
2023-05-08T08:08:51.873Z,23.72
2023-05-08T08:09:51.371Z,23.74
2023-05-08T08:10:52.309Z,23.74
2023-05-08T08:11:51.305Z,23.74
2023-05-08T08:12:51.375Z,23.75
2023-05-08T08:13:51.456Z,23.75
2023-05-08T08:14:51.360Z,23.76
2023-05-08T08:15:51.354Z,23.77
2023-05-08T08:16:51.283Z,23.78
2023-05-08T08:17:51.314Z,23.78
2023-05-08T08:18:51.283Z,23.80
2023-05-08T08:19:51.242Z,23.81
2023-05-08T08:20:51.229Z,23.83
2023-05-08T08:21:51.229Z,23.83
2023-05-08T08:22:51.195Z,23.84
2023-05-08T08:23:51.169Z,23.85
2023-05-08T08:24:52.461Z,23.87
2023-05-08T08:25:51.155Z,23.87
2023-05-08T08:26:51.120Z,23.87
2023-05-08T08:27:51.421Z,23.88
2023-05-08T08:28:51.062Z,23.88
2023-05-08T08:29:58.546Z,23.90
2023-05-08T08:30:51.221Z,23.89
2023-05-08T08:31:51.531Z,23.89
2023-05-08T08:32:50.987Z,23.91
2023-05-08T08:33:50.952Z,23.92
2023-05-08T08:34:50.916Z,23.94
2023-05-08T08:35:50.891Z,23.94
2023-05-08T08:36:51.359Z,23.95
2023-05-08T08:37:50.869Z,23.96
2023-05-08T08:38:50.812Z,23.97
2023-05-08T08:39:50.793Z,23.98
2023-05-08T08:41:06.515Z,23.99
2023-05-08T08:41:58.134Z,23.99
2023-05-08T08:42:50.713Z,23.98
2023-05-08T08:44:58.278Z,24.00
2023-05-08T08:45:50.867Z,24.00
2023-05-08T08:46:50.705Z,24.01
2023-05-08T08:47:50.736Z,24.03
2023-05-08T08:48:50.556Z,24.04
2023-05-08T08:49:50.862Z,24.06
2023-05-08T08:50:50.512Z,24.07
2023-05-08T08:51:50.514Z,24.07
2023-05-08T08:52:51.468Z,24.08
2023-05-08T08:53:50.444Z,24.09
2023-05-08T08:54:50.867Z,24.10
2023-05-08T08:55:50.901Z,24.10
2023-05-08T08:56:50.353Z,24.11
2023-05-08T08:57:50.422Z,24.11
2023-05-08T08:58:57.295Z,24.13
2023-05-08T08:59:50.288Z,24.12
2023-05-08T09:00:53.571Z,24.13
2023-05-08T09:01:50.373Z,24.14
2023-05-08T09:02:50.461Z,24.13
2023-05-08T09:03:50.283Z,24.15
2023-05-08T09:04:50.388Z,24.16
2023-05-08T09:05:50.190Z,24.16
2023-05-08T09:06:50.123Z,24.16
2023-05-08T09:07:50.116Z,24.16
2023-05-08T09:08:50.099Z,24.17
2023-05-08T09:09:50.055Z,24.18
2023-05-08T09:10:50.392Z,24.18
2023-05-08T09:11:50.022Z,24.19
2023-05-08T09:12:50.013Z,24.20
2023-05-08T09:13:49.964Z,24.21
2023-05-08T09:14:49.945Z,24.23
2023-05-08T09:15:50.443Z,24.23
2023-05-08T09:16:50.169Z,24.24
2023-05-08T09:17:49.902Z,24.24
2023-05-08T09:18:49.837Z,24.23
2023-05-08T09:19:49.823Z,24.25
2023-05-08T09:20:49.900Z,24.26
2023-05-08T09:21:49.769Z,24.28
2023-05-08T09:22:49.759Z,24.29
2023-05-08T09:23:49.785Z,24.29
2023-05-08T09:24:49.820Z,24.30
2023-05-08T09:25:49.960Z,24.30
2023-05-08T09:26:49.848Z,24.30
2023-05-08T09:27:49.859Z,24.29
2023-05-08T09:28:49.875Z,24.30
2023-05-08T09:29:49.913Z,24.29
2023-05-08T09:30:50.397Z,24.28
2023-05-08T09:31:49.979Z,24.26
2023-05-08T09:32:50.222Z,24.24
2023-05-08T09:33:50.407Z,24.23
2023-05-08T09:34:50.039Z,24.23
2023-05-08T09:35:50.397Z,24.23
2023-05-08T09:36:50.092Z,24.22
2023-05-08T09:37:50.135Z,24.22
2023-05-08T09:38:50.164Z,24.22
2023-05-08T09:39:51.219Z,24.21
2023-05-08T09:40:50.720Z,24.21
2023-05-08T09:41:50.282Z,24.20
2023-05-08T09:42:51.330Z,24.20
2023-05-08T09:43:50.901Z,24.20
2023-05-08T09:44:50.327Z,24.20
2023-05-08T09:45:50.445Z,24.21
2023-05-08T09:46:50.404Z,24.21
2023-05-08T09:47:50.461Z,24.21
2023-05-08T09:48:50.930Z,24.21
2023-05-08T09:49:50.506Z,24.22
2023-05-08T09:50:50.544Z,24.22
2023-05-08T09:51:50.635Z,24.22
2023-05-08T09:52:50.634Z,24.23
2023-05-08T09:53:50.904Z,24.24
2023-05-08T09:54:50.687Z,24.25
2023-05-08T09:55:50.970Z,24.27
2023-05-08T09:56:50.924Z,24.28
2023-05-08T09:57:50.772Z,24.29
2023-05-08T09:58:50.857Z,24.32
2023-05-08T09:59:50.825Z,24.34
2023-05-08T10:00:50.865Z,24.35
2023-05-08T10:01:50.917Z,24.36
2023-05-08T10:02:50.923Z,24.37
2023-05-08T10:03:50.952Z,24.38
2023-05-08T10:04:51.085Z,24.39
2023-05-08T10:05:50.961Z,24.40
2023-05-08T10:06:51.432Z,24.41
2023-05-08T10:07:51.004Z,24.42
2023-05-08T10:08:51.418Z,24.43
2023-05-08T10:09:51.093Z,24.44
2023-05-08T10:10:51.055Z,24.44
2023-05-08T10:11:51.072Z,24.45
2023-05-08T10:12:51.457Z,24.45
2023-05-08T10:13:51.096Z,24.46
2023-05-08T10:14:51.107Z,24.47
2023-05-08T10:15:51.115Z,24.47
2023-05-08T10:16:51.445Z,24.46
2023-05-08T10:17:51.186Z,24.47
2023-05-08T10:18:51.416Z,24.47
2023-05-08T10:19:51.178Z,24.46
2023-05-08T10:20:51.328Z,24.44
2023-05-08T10:21:51.428Z,24.42
2023-05-08T10:22:51.218Z,24.40
2023-05-08T10:23:51.230Z,24.39
2023-05-08T10:24:58.650Z,24.37
2023-05-08T10:25:52.774Z,24.35
2023-05-08T10:27:05.718Z,24.33
2023-05-08T10:27:51.176Z,24.31
2023-05-08T10:28:51.162Z,24.30
2023-05-08T10:29:52.125Z,24.28
2023-05-08T10:30:51.447Z,24.27
2023-05-08T10:31:51.423Z,24.26
2023-05-08T10:32:51.444Z,24.25
2023-05-08T10:33:50.996Z,24.23
2023-05-08T10:34:50.952Z,24.23
2023-05-08T10:35:51.464Z,24.22
2023-05-08T10:36:53.350Z,24.20
2023-05-08T10:37:50.872Z,24.20
2023-05-08T10:38:50.923Z,24.19
2023-05-08T10:39:50.852Z,24.18
2023-05-08T10:40:50.946Z,24.17
2023-05-08T10:41:50.736Z,24.17
2023-05-08T10:42:50.720Z,24.16
2023-05-08T10:43:50.695Z,24.15
2023-05-08T10:44:50.669Z,24.14
2023-05-08T10:45:51.005Z,24.13
2023-05-08T10:46:50.671Z,24.13
2023-05-08T10:47:50.620Z,24.12
2023-05-08T10:48:50.548Z,24.11
2023-05-08T10:49:50.511Z,24.10
2023-05-08T10:50:50.937Z,24.09
2023-05-08T10:51:50.515Z,24.09
2023-05-08T10:52:50.962Z,24.08
2023-05-08T10:53:50.422Z,24.08
2023-05-08T10:54:50.380Z,24.07
2023-05-08T10:55:50.387Z,24.06
2023-05-08T10:56:50.337Z,24.06
2023-05-08T10:57:50.436Z,24.06
2023-05-08T10:58:50.437Z,24.05
2023-05-08T10:59:50.299Z,24.04
2023-05-08T11:00:50.358Z,24.04
2023-05-08T11:01:50.548Z,24.03
2023-05-08T11:02:50.529Z,24.03
2023-05-08T11:03:50.932Z,24.02
2023-05-08T11:04:50.507Z,24.02
2023-05-08T11:05:50.553Z,24.01
2023-05-08T11:06:50.938Z,24.01
2023-05-08T11:07:50.650Z,24.01
2023-05-08T11:08:50.819Z,24.01
2023-05-08T11:09:50.932Z,24.01
2023-05-08T11:10:50.736Z,24.01
2023-05-08T11:11:50.790Z,24.01
2023-05-08T11:12:50.853Z,24.00
2023-05-08T11:13:50.895Z,24.00
2023-05-08T11:14:50.961Z,23.99
2023-05-08T11:15:51.099Z,23.99
2023-05-08T11:16:51.443Z,23.99
2023-05-08T11:17:51.088Z,23.98
2023-05-08T11:18:51.098Z,23.99
2023-05-08T11:19:51.119Z,23.99
2023-05-08T11:20:51.138Z,23.98
2023-05-08T11:21:51.443Z,23.98
2023-05-08T11:22:51.172Z,23.98
2023-05-08T11:23:51.465Z,23.98
2023-05-08T11:24:51.279Z,23.98
2023-05-08T11:25:51.196Z,23.98
2023-05-08T11:26:51.231Z,23.97
2023-05-08T11:27:51.443Z,23.96
2023-05-08T11:28:51.444Z,23.96
2023-05-08T11:29:58.719Z,23.97
2023-05-08T11:30:51.302Z,23.95
2023-05-08T11:31:51.287Z,23.95
2023-05-08T11:32:51.302Z,23.95
2023-05-08T11:33:51.450Z,23.94
2023-05-08T11:34:58.569Z,23.95
2023-05-08T11:35:52.129Z,23.94
2023-05-08T11:36:51.299Z,23.93
2023-05-08T11:37:51.116Z,23.94
2023-05-08T11:38:51.089Z,23.94
2023-05-08T11:39:51.026Z,23.93
2023-05-08T11:40:51.029Z,23.93
2023-05-08T11:41:51.055Z,23.93
2023-05-08T11:42:50.939Z,23.94
2023-05-08T11:43:50.897Z,23.93
2023-05-08T11:44:50.880Z,23.93
2023-05-08T11:45:50.850Z,23.93
2023-05-08T11:46:51.019Z,23.92
2023-05-08T11:47:50.857Z,23.94
2023-05-08T11:48:50.764Z,23.93
2023-05-08T11:49:50.960Z,23.92
2023-05-08T11:50:50.737Z,23.92
2023-05-08T11:51:50.706Z,23.92
2023-05-08T11:52:50.700Z,23.91
2023-05-08T11:53:50.953Z,23.91
2023-05-08T11:54:50.682Z,23.92
2023-05-08T11:55:50.664Z,23.92
2023-05-08T11:56:50.774Z,23.92
2023-05-08T11:57:53.929Z,23.92
2023-05-08T11:58:50.982Z,23.92
2023-05-08T11:59:50.672Z,23.92
2023-05-08T12:00:50.690Z,23.92
2023-05-08T12:02:06.798Z,23.92
2023-05-08T12:02:50.691Z,23.92
2023-05-08T12:03:51.164Z,23.92
2023-05-08T12:04:50.578Z,23.92
2023-05-08T12:05:53.730Z,23.92
2023-05-08T12:06:50.960Z,23.93
2023-05-08T12:07:50.513Z,23.93
2023-05-08T12:08:50.470Z,23.93
2023-05-08T12:09:50.440Z,23.94
2023-05-08T12:10:50.408Z,23.94
2023-05-08T12:11:50.391Z,23.95
2023-05-08T12:12:50.421Z,23.95
2023-05-08T12:13:50.305Z,23.96
2023-05-08T12:14:50.287Z,23.96
2023-05-08T12:15:50.230Z,23.96
2023-05-08T12:16:50.515Z,23.96
2023-05-08T12:17:50.980Z,23.97
2023-05-08T12:18:50.651Z,23.96
2023-05-08T12:19:50.702Z,23.97
2023-05-08T12:20:50.644Z,23.98
2023-05-08T12:21:51.010Z,23.98
2023-05-08T12:22:50.514Z,23.98
2023-05-08T12:23:50.656Z,23.98
2023-05-08T12:24:50.314Z,23.99
2023-05-08T12:25:52.672Z,23.98
2023-05-08T12:26:50.146Z,23.98
2023-05-08T12:27:50.257Z,23.99
2023-05-08T12:28:50.477Z,23.98
2023-05-08T12:29:50.152Z,23.99
2023-05-08T12:30:50.491Z,24.00
2023-05-08T12:31:50.536Z,24.00
2023-05-08T12:32:50.601Z,24.01
2023-05-08T12:33:50.109Z,24.00
2023-05-08T12:34:50.306Z,24.00
2023-05-08T12:35:50.366Z,24.01
2023-05-08T12:36:50.627Z,24.01
2023-05-08T12:37:50.096Z,24.01
2023-05-08T12:38:50.207Z,24.00
2023-05-08T12:39:49.920Z,24.01
2023-05-08T12:40:49.990Z,24.02
2023-05-08T12:41:50.433Z,24.01
2023-05-08T12:42:50.218Z,24.02
2023-05-08T12:43:50.192Z,24.03
2023-05-08T12:44:50.262Z,24.02
2023-05-08T12:45:49.981Z,24.02
2023-05-08T12:46:49.777Z,24.02
2023-05-08T12:47:49.820Z,24.03
2023-05-08T12:48:49.832Z,24.03
2023-05-08T12:49:49.824Z,24.02
2023-05-08T12:50:49.830Z,24.03
2023-05-08T12:51:49.868Z,24.03
2023-05-08T12:52:51.498Z,24.03
2023-05-08T12:53:49.892Z,24.03
2023-05-08T12:54:49.893Z,24.03